sensor_id;sensor_type;location;lat;lon;timestamp;pressure;altitude;pressure_sealevel;temperature;humidity
20710;BME280;10516;51.518;9.864;2024-02-26T00:01:24;97350.09;;;2.89;77.97
20710;BME280;10516;51.518;9.864;2024-02-26T00:03:50;97326.53;;;2.83;77.86
20710;BME280;10516;51.518;9.864;2024-02-26T00:06:15;97333.16;;;2.85;78.03
20710;BME280;10516;51.518;9.864;2024-02-26T00:08:41;97347.38;;;1.35;80.56
20710;BME280;10516;51.518;9.864;2024-02-26T00:11:06;97335.47;;;2.54;80.49
20710;BME280;10516;51.518;9.864;2024-02-26T00:13:32;97353.75;;;2.88;78.50
20710;BME280;10516;51.518;9.864;2024-02-26T00:15:57;97334.16;;;2.68;78.55
20710;BME280;10516;51.518;9.864;2024-02-26T00:18:22;97350.97;;;2.67;78.28
20710;BME280;10516;51.518;9.864;2024-02-26T00:20:48;97350.84;;;2.73;78.88
20710;BME280;10516;51.518;9.864;2024-02-26T00:23:15;97334.41;;;2.66;78.86
20710;BME280;10516;51.518;9.864;2024-02-26T00:25:40;97344.88;;;2.78;78.43
20710;BME280;10516;51.518;9.864;2024-02-26T00:28:08;97306.44;;;2.65;78.51
20710;BME280;10516;51.518;9.864;2024-02-26T00:30:33;97335.38;;;2.77;78.51
20710;BME280;10516;51.518;9.864;2024-02-26T00:32:58;97340.97;;;2.80;78.05
20710;BME280;10516;51.518;9.864;2024-02-26T00:35:24;97307.16;;;2.61;79.06
20710;BME280;10516;51.518;9.864;2024-02-26T00:37:49;97316.31;;;2.58;78.48
20710;BME280;10516;51.518;9.864;2024-02-26T00:40:15;97339.59;;;2.78;78.67
20710;BME280;10516;51.518;9.864;2024-02-26T00:42:40;97303.53;;;2.50;78.42
20710;BME280;10516;51.518;9.864;2024-02-26T00:45:11;97342.81;;;2.80;78.42
20710;BME280;10516;51.518;9.864;2024-02-26T00:47:37;97329.31;;;2.76;78.74
20710;BME280;10516;51.518;9.864;2024-02-26T00:50:02;97339.81;;;2.88;78.34
20710;BME280;10516;51.518;9.864;2024-02-26T00:52:28;97338.53;;;2.90;78.23
20710;BME280;10516;51.518;9.864;2024-02-26T00:54:53;97267.94;;;2.48;78.16
20710;BME280;10516;51.518;9.864;2024-02-26T00:57:18;97318.88;;;2.81;78.43
20710;BME280;10516;51.518;9.864;2024-02-26T00:59:44;97338.94;;;2.99;78.34
20710;BME280;10516;51.518;9.864;2024-02-26T01:02:09;97343.31;;;2.93;77.73
20710;BME280;10516;51.518;9.864;2024-02-26T01:04:34;97349.06;;;2.90;78.32
20710;BME280;10516;51.518;9.864;2024-02-26T01:07:00;97327.06;;;2.68;78.60
20710;BME280;10516;51.518;9.864;2024-02-26T01:09:25;97347.31;;;2.96;77.79
20710;BME280;10516;51.518;9.864;2024-02-26T01:11:51;97340.94;;;2.92;78.15
20710;BME280;10516;51.518;9.864;2024-02-26T01:14:16;97331.75;;;2.94;78.33
20710;BME280;10516;51.518;9.864;2024-02-26T01:16:41;97338.53;;;2.90;78.69
20710;BME280;10516;51.518;9.864;2024-02-26T01:19:07;97339.94;;;2.81;78.08
20710;BME280;10516;51.518;9.864;2024-02-26T01:21:35;97299.75;;;2.58;79.08
20710;BME280;10516;51.518;9.864;2024-02-26T01:24:00;97317.00;;;2.82;78.33
20710;BME280;10516;51.518;9.864;2024-02-26T01:26:25;97330.50;;;2.97;78.36
20710;BME280;10516;51.518;9.864;2024-02-26T01:28:51;97239.25;;;2.35;78.37
20710;BME280;10516;51.518;9.864;2024-02-26T01:31:16;97280.25;;;2.59;78.22
20710;BME280;10516;51.518;9.864;2024-02-26T01:33:41;97324.06;;;2.93;78.16
20710;BME280;10516;51.518;9.864;2024-02-26T01:36:07;97323.28;;;2.92;78.24
20710;BME280;10516;51.518;9.864;2024-02-26T01:38:32;97324.84;;;2.77;78.80
20710;BME280;10516;51.518;9.864;2024-02-26T01:40:57;97319.34;;;1.99;79.54
20710;BME280;10516;51.518;9.864;2024-02-26T01:43:23;97332.88;;;1.56;81.37
20710;BME280;10516;51.518;9.864;2024-02-26T01:45:48;97300.25;;;2.43;80.42
20710;BME280;10516;51.518;9.864;2024-02-26T01:48:14;97315.97;;;2.66;79.60
20710;BME280;10516;51.518;9.864;2024-02-26T01:50:40;97317.91;;;2.87;78.67
20710;BME280;10516;51.518;9.864;2024-02-26T01:53:06;97287.91;;;2.60;78.91
20710;BME280;10516;51.518;9.864;2024-02-26T01:55:33;97284.34;;;2.66;78.87
20710;BME280;10516;51.518;9.864;2024-02-26T01:57:59;97243.78;;;2.22;78.66
20710;BME280;10516;51.518;9.864;2024-02-26T02:00:25;97317.56;;;2.67;79.35
20710;BME280;10516;51.518;9.864;2024-02-26T02:02:50;97325.66;;;2.77;79.10
20710;BME280;10516;51.518;9.864;2024-02-26T02:05:16;97325.00;;;2.70;79.20
20710;BME280;10516;51.518;9.864;2024-02-26T02:07:44;97311.81;;;2.70;79.20
20710;BME280;10516;51.518;9.864;2024-02-26T02:10:10;97290.13;;;2.52;79.98
20710;BME280;10516;51.518;9.864;2024-02-26T02:12:36;97324.56;;;2.62;79.10
20710;BME280;10516;51.518;9.864;2024-02-26T02:15:05;97317.25;;;2.52;80.01
20710;BME280;10516;51.518;9.864;2024-02-26T02:17:31;97307.97;;;2.61;79.50
20710;BME280;10516;51.518;9.864;2024-02-26T02:19:56;97317.09;;;2.70;79.25
20710;BME280;10516;51.518;9.864;2024-02-26T02:22:22;97330.78;;;2.84;78.74
20710;BME280;10516;51.518;9.864;2024-02-26T02:24:49;97287.47;;;2.63;79.28
20710;BME280;10516;51.518;9.864;2024-02-26T02:27:14;97286.63;;;2.46;79.12
20710;BME280;10516;51.518;9.864;2024-02-26T02:29:40;97311.44;;;2.78;78.66
20710;BME280;10516;51.518;9.864;2024-02-26T02:32:06;97320.09;;;2.90;78.59
20710;BME280;10516;51.518;9.864;2024-02-26T02:34:32;97323.59;;;2.79;79.11
20710;BME280;10516;51.518;9.864;2024-02-26T02:36:57;97328.84;;;2.79;79.13
20710;BME280;10516;51.518;9.864;2024-02-26T02:39:23;97319.44;;;2.83;78.81
20710;BME280;10516;51.518;9.864;2024-02-26T02:41:48;97315.13;;;2.77;78.83
20710;BME280;10516;51.518;9.864;2024-02-26T02:44:14;97322.63;;;2.85;78.66
20710;BME280;10516;51.518;9.864;2024-02-26T02:46:39;97308.28;;;1.85;80.48
20710;BME280;10516;51.518;9.864;2024-02-26T02:49:11;97295.25;;;2.58;79.60
20710;BME280;10516;51.518;9.864;2024-02-26T02:51:37;97322.91;;;2.44;80.23
20710;BME280;10516;51.518;9.864;2024-02-26T02:54:02;97312.19;;;2.62;79.19
20710;BME280;10516;51.518;9.864;2024-02-26T02:56:28;97336.56;;;2.69;79.10
20710;BME280;10516;51.518;9.864;2024-02-26T02:58:53;97325.41;;;2.79;79.18
20710;BME280;10516;51.518;9.864;2024-02-26T03:01:19;97321.84;;;2.05;81.98
20710;BME280;10516;51.518;9.864;2024-02-26T03:03:44;97297.81;;;2.53;79.85
20710;BME280;10516;51.518;9.864;2024-02-26T03:06:10;97294.22;;;2.59;79.38
20710;BME280;10516;51.518;9.864;2024-02-26T03:08:35;97283.94;;;2.58;79.44
20710;BME280;10516;51.518;9.864;2024-02-26T03:11:05;97269.44;;;2.15;80.12
20710;BME280;10516;51.518;9.864;2024-02-26T03:13:30;97309.66;;;2.67;79.58
20710;BME280;10516;51.518;9.864;2024-02-26T03:15:55;97311.84;;;2.59;79.32
20710;BME280;10516;51.518;9.864;2024-02-26T03:18:21;97322.06;;;2.55;80.22
20710;BME280;10516;51.518;9.864;2024-02-26T03:20:46;97319.06;;;2.63;80.06
20710;BME280;10516;51.518;9.864;2024-02-26T03:23:12;97326.91;;;2.75;79.72
20710;BME280;10516;51.518;9.864;2024-02-26T03:25:44;97319.63;;;2.65;79.57
20710;BME280;10516;51.518;9.864;2024-02-26T03:28:11;97328.31;;;2.66;80.00
20710;BME280;10516;51.518;9.864;2024-02-26T03:30:37;97280.38;;;2.36;80.08
20710;BME280;10516;51.518;9.864;2024-02-26T03:33:03;97306.16;;;2.50;80.18
20710;BME280;10516;51.518;9.864;2024-02-26T03:35:28;97309.69;;;2.56;80.11
20710;BME280;10516;51.518;9.864;2024-02-26T03:37:54;97342.38;;;2.71;79.82
20710;BME280;10516;51.518;9.864;2024-02-26T03:40:19;97306.72;;;2.52;79.90
20710;BME280;10516;51.518;9.864;2024-02-26T03:42:45;97321.69;;;2.63;80.09
20710;BME280;10516;51.518;9.864;2024-02-26T03:45:10;97330.53;;;2.57;80.35
20710;BME280;10516;51.518;9.864;2024-02-26T03:47:37;97326.84;;;2.58;80.21
20710;BME280;10516;51.518;9.864;2024-02-26T03:50:03;97321.94;;;2.62;79.91
20710;BME280;10516;51.518;9.864;2024-02-26T03:52:30;97329.22;;;2.71;79.77
20710;BME280;10516;51.518;9.864;2024-02-26T03:54:55;97289.56;;;2.21;79.82
20710;BME280;10516;51.518;9.864;2024-02-26T03:57:20;97334.53;;;2.60;81.33
20710;BME280;10516;51.518;9.864;2024-02-26T03:59:46;97298.13;;;2.57;79.68
20710;BME280;10516;51.518;9.864;2024-02-26T04:02:11;97322.81;;;2.67;80.12
20710;BME280;10516;51.518;9.864;2024-02-26T04:04:36;97273.88;;;2.26;80.18
20710;BME280;10516;51.518;9.864;2024-02-26T04:07:02;97311.81;;;1.91;81.96
20710;BME280;10516;51.518;9.864;2024-02-26T04:09:27;97301.88;;;1.58;83.92
20710;BME280;10516;51.518;9.864;2024-02-26T04:11:53;97324.31;;;2.35;82.06
20710;BME280;10516;51.518;9.864;2024-02-26T04:14:18;97261.16;;;2.23;80.58
20710;BME280;10516;51.518;9.864;2024-02-26T04:16:43;97310.56;;;2.73;80.22
20710;BME280;10516;51.518;9.864;2024-02-26T04:19:09;97308.28;;;2.25;81.76
20710;BME280;10516;51.518;9.864;2024-02-26T04:21:34;97268.06;;;2.13;81.41
20710;BME280;10516;51.518;9.864;2024-02-26T04:24:00;97339.38;;;2.79;80.56
20710;BME280;10516;51.518;9.864;2024-02-26T04:26:27;97257.38;;;2.31;79.84
20710;BME280;10516;51.518;9.864;2024-02-26T04:28:53;97335.69;;;2.80;80.61
20710;BME280;10516;51.518;9.864;2024-02-26T04:31:19;97335.81;;;2.85;80.43
20710;BME280;10516;51.518;9.864;2024-02-26T04:33:44;97337.94;;;2.88;80.20
20710;BME280;10516;51.518;9.864;2024-02-26T04:36:14;97327.56;;;2.82;80.36
20710;BME280;10516;51.518;9.864;2024-02-26T04:38:43;97335.66;;;2.92;80.03
20710;BME280;10516;51.518;9.864;2024-02-26T04:41:09;97339.56;;;2.89;79.71
20710;BME280;10516;51.518;9.864;2024-02-26T04:43:34;97305.66;;;2.65;80.50
20710;BME280;10516;51.518;9.864;2024-02-26T04:46:01;97335.56;;;2.87;80.23
20710;BME280;10516;51.518;9.864;2024-02-26T04:48:27;97339.00;;;2.87;80.74
20710;BME280;10516;51.518;9.864;2024-02-26T04:50:52;97321.16;;;2.78;80.13
20710;BME280;10516;51.518;9.864;2024-02-26T04:53:18;97302.31;;;2.69;80.30
20710;BME280;10516;51.518;9.864;2024-02-26T04:55:43;97317.16;;;2.75;80.37
20710;BME280;10516;51.518;9.864;2024-02-26T04:58:09;97301.19;;;2.65;80.18
20710;BME280;10516;51.518;9.864;2024-02-26T05:00:35;97346.75;;;2.94;80.27
20710;BME280;10516;51.518;9.864;2024-02-26T05:03:01;97340.13;;;2.91;80.10
20710;BME280;10516;51.518;9.864;2024-02-26T05:05:26;97331.75;;;2.94;80.29
20710;BME280;10516;51.518;9.864;2024-02-26T05:07:52;97338.94;;;2.99;80.24
20710;BME280;10516;51.518;9.864;2024-02-26T05:10:17;97330.84;;;2.61;81.45
20710;BME280;10516;51.518;9.864;2024-02-26T05:12:42;97295.78;;;2.72;81.07
20710;BME280;10516;51.518;9.864;2024-02-26T05:15:09;97329.22;;;2.71;81.36
20710;BME280;10516;51.518;9.864;2024-02-26T05:17:34;97347.38;;;2.84;80.90
20710;BME280;10516;51.518;9.864;2024-02-26T05:20:00;97304.53;;;1.81;83.49
20710;BME280;10516;51.518;9.864;2024-02-26T05:22:25;97347.31;;;2.28;85.08
20710;BME280;10516;51.518;9.864;2024-02-26T05:24:50;97358.56;;;2.91;82.24
20710;BME280;10516;51.518;9.864;2024-02-26T05:27:16;97357.22;;;2.09;84.99
20710;BME280;10516;51.518;9.864;2024-02-26T05:29:42;97339.34;;;2.11;85.12
20710;BME280;10516;51.518;9.864;2024-02-26T05:32:07;97355.63;;;1.50;87.37
20710;BME280;10516;51.518;9.864;2024-02-26T05:34:32;97332.97;;;1.38;89.89
20710;BME280;10516;51.518;9.864;2024-02-26T05:36:58;97343.50;;;2.47;86.39
20710;BME280;10516;51.518;9.864;2024-02-26T05:39:24;97347.88;;;2.70;83.53
20710;BME280;10516;51.518;9.864;2024-02-26T05:41:49;97372.97;;;2.72;82.91
20710;BME280;10516;51.518;9.864;2024-02-26T05:44:14;97331.50;;;1.42;87.85
20710;BME280;10516;51.518;9.864;2024-02-26T05:46:41;97354.19;;;2.69;83.77
20710;BME280;10516;51.518;9.864;2024-02-26T05:49:07;97367.97;;;1.85;86.95
20710;BME280;10516;51.518;9.864;2024-02-26T05:51:32;97376.41;;;2.10;88.70
20710;BME280;10516;51.518;9.864;2024-02-26T05:53:58;97377.00;;;2.00;87.65
20710;BME280;10516;51.518;9.864;2024-02-26T05:56:23;97375.38;;;1.53;90.56
20710;BME280;10516;51.518;9.864;2024-02-26T05:58:50;97383.88;;;1.78;91.41
20710;BME280;10516;51.518;9.864;2024-02-26T06:01:16;97330.22;;;2.02;88.54
20710;BME280;10516;51.518;9.864;2024-02-26T06:03:42;97388.56;;;2.11;88.04
20710;BME280;10516;51.518;9.864;2024-02-26T06:06:07;97389.00;;;2.08;90.05
20710;BME280;10516;51.518;9.864;2024-02-26T06:08:36;97387.44;;;2.86;85.13
20710;BME280;10516;51.518;9.864;2024-02-26T06:11:06;97348.19;;;1.59;88.48
20710;BME280;10516;51.518;9.864;2024-02-26T06:13:32;97387.63;;;1.59;91.60
20710;BME280;10516;51.518;9.864;2024-02-26T06:15:57;97298.97;;;0.90;93.40
20710;BME280;10516;51.518;9.864;2024-02-26T06:18:23;97397.59;;;1.57;94.34
20710;BME280;10516;51.518;9.864;2024-02-26T06:20:51;97341.78;;;1.43;93.32
20710;BME280;10516;51.518;9.864;2024-02-26T06:23:17;97384.31;;;1.52;93.98
20710;BME280;10516;51.518;9.864;2024-02-26T06:25:42;97359.03;;;1.39;93.91
20710;BME280;10516;51.518;9.864;2024-02-26T06:28:08;97343.59;;;1.43;93.78
20710;BME280;10516;51.518;9.864;2024-02-26T06:30:34;97354.22;;;2.06;90.86
20710;BME280;10516;51.518;9.864;2024-02-26T06:33:01;97394.94;;;2.15;90.20
20710;BME280;10516;51.518;9.864;2024-02-26T06:35:28;97400.28;;;3.11;85.04
20710;BME280;10516;51.518;9.864;2024-02-26T06:37:53;97386.59;;;2.18;87.36
20710;BME280;10516;51.518;9.864;2024-02-26T06:40:19;97401.47;;;1.78;91.00
20710;BME280;10516;51.518;9.864;2024-02-26T06:42:44;97401.69;;;1.65;93.34
20710;BME280;10516;51.518;9.864;2024-02-26T06:45:10;97345.81;;;2.32;89.81
20710;BME280;10516;51.518;9.864;2024-02-26T06:47:36;97354.63;;;2.38;87.07
20710;BME280;10516;51.518;9.864;2024-02-26T06:50:01;97411.31;;;1.94;90.74
20710;BME280;10516;51.518;9.864;2024-02-26T06:52:26;97413.00;;;2.23;92.03
20710;BME280;10516;51.518;9.864;2024-02-26T06:54:52;97399.72;;;2.81;87.89
20710;BME280;10516;51.518;9.864;2024-02-26T06:57:19;97372.88;;;2.56;86.05
20710;BME280;10516;51.518;9.864;2024-02-26T06:59:44;97400.75;;;3.08;84.92
20710;BME280;10516;51.518;9.864;2024-02-26T07:02:13;97424.22;;;2.53;87.31
20710;BME280;10516;51.518;9.864;2024-02-26T07:04:38;97404.84;;;2.99;86.43
20710;BME280;10516;51.518;9.864;2024-02-26T07:07:04;97394.19;;;2.54;87.59
20710;BME280;10516;51.518;9.864;2024-02-26T07:09:29;97420.53;;;2.94;87.22
20710;BME280;10516;51.518;9.864;2024-02-26T07:11:55;97428.88;;;3.02;86.57
20710;BME280;10516;51.518;9.864;2024-02-26T07:14:20;97418.59;;;2.89;87.44
20710;BME280;10516;51.518;9.864;2024-02-26T07:16:45;97422.34;;;2.65;88.02
20710;BME280;10516;51.518;9.864;2024-02-26T07:19:11;97391.50;;;2.77;87.53
20710;BME280;10516;51.518;9.864;2024-02-26T07:21:36;97403.09;;;2.65;87.05
20710;BME280;10516;51.518;9.864;2024-02-26T07:24:02;97456.34;;;3.07;88.01
20710;BME280;10516;51.518;9.864;2024-02-26T07:26:27;97441.16;;;3.25;86.21
20710;BME280;10516;51.518;9.864;2024-02-26T07:28:55;97441.59;;;3.50;84.42
20710;BME280;10516;51.518;9.864;2024-02-26T07:31:20;97429.28;;;3.39;85.01
20710;BME280;10516;51.518;9.864;2024-02-26T07:33:46;97425.56;;;2.95;86.90
20710;BME280;10516;51.518;9.864;2024-02-26T07:36:11;97445.06;;;3.23;85.99
20710;BME280;10516;51.518;9.864;2024-02-26T07:38:37;97418.56;;;3.01;87.18
20710;BME280;10516;51.518;9.864;2024-02-26T07:41:02;97408.63;;;3.20;87.06
20710;BME280;10516;51.518;9.864;2024-02-26T07:43:28;97448.19;;;3.64;85.66
20710;BME280;10516;51.518;9.864;2024-02-26T07:45:54;97425.75;;;3.34;85.99
20710;BME280;10516;51.518;9.864;2024-02-26T07:48:19;97430.69;;;3.30;86.74
20710;BME280;10516;51.518;9.864;2024-02-26T07:50:45;97445.91;;;3.12;89.17
20710;BME280;10516;51.518;9.864;2024-02-26T07:53:10;97396.47;;;2.62;89.98
20710;BME280;10516;51.518;9.864;2024-02-26T07:55:35;97411.06;;;3.38;86.74
20710;BME280;10516;51.518;9.864;2024-02-26T07:58:01;97438.78;;;3.40;87.29
20710;BME280;10516;51.518;9.864;2024-02-26T08:00:26;97428.53;;;3.89;85.60
20710;BME280;10516;51.518;9.864;2024-02-26T08:02:51;97366.78;;;2.67;87.25
20710;BME280;10516;51.518;9.864;2024-02-26T08:05:17;97444.13;;;3.29;86.27
20710;BME280;10516;51.518;9.864;2024-02-26T08:07:42;97439.56;;;3.86;84.89
20710;BME280;10516;51.518;9.864;2024-02-26T08:10:08;97448.97;;;3.65;85.02
20710;BME280;10516;51.518;9.864;2024-02-26T08:12:33;97449.72;;;3.32;84.60
20710;BME280;10516;51.518;9.864;2024-02-26T08:14:59;97458.09;;;3.74;85.39
20710;BME280;10516;51.518;9.864;2024-02-26T08:17:25;97456.88;;;3.48;86.53
20710;BME280;10516;51.518;9.864;2024-02-26T08:19:50;97423.94;;;3.67;85.06
20710;BME280;10516;51.518;9.864;2024-02-26T08:22:16;97412.63;;;3.22;85.08
20710;BME280;10516;51.518;9.864;2024-02-26T08:24:43;97438.66;;;3.63;85.49
20710;BME280;10516;51.518;9.864;2024-02-26T08:27:08;97475.69;;;3.85;85.10
20710;BME280;10516;51.518;9.864;2024-02-26T08:29:33;97467.97;;;3.95;85.14
20710;BME280;10516;51.518;9.864;2024-02-26T08:31:59;97448.28;;;3.86;84.91
20710;BME280;10516;51.518;9.864;2024-02-26T08:34:25;97440.47;;;4.29;82.87
20710;BME280;10516;51.518;9.864;2024-02-26T08:36:50;97447.28;;;4.25;82.63
20710;BME280;10516;51.518;9.864;2024-02-26T08:39:16;97428.19;;;4.02;83.59
20710;BME280;10516;51.518;9.864;2024-02-26T08:41:45;97470.41;;;4.18;84.50
20710;BME280;10516;51.518;9.864;2024-02-26T08:44:11;97477.59;;;4.39;83.23
20710;BME280;10516;51.518;9.864;2024-02-26T08:46:37;97479.91;;;4.74;81.96
20710;BME280;10516;51.518;9.864;2024-02-26T08:49:02;97475.03;;;4.44;84.22
20710;BME280;10516;51.518;9.864;2024-02-26T08:51:28;97434.31;;;4.24;84.84
20710;BME280;10516;51.518;9.864;2024-02-26T08:53:54;97486.78;;;4.53;84.39
20710;BME280;10516;51.518;9.864;2024-02-26T08:56:20;97451.25;;;4.44;83.67
20710;BME280;10516;51.518;9.864;2024-02-26T08:58:47;97466.63;;;4.31;83.33
20710;BME280;10516;51.518;9.864;2024-02-26T09:01:17;97470.22;;;4.41;85.01
20710;BME280;10516;51.518;9.864;2024-02-26T09:03:42;97459.09;;;4.39;84.65
20710;BME280;10516;51.518;9.864;2024-02-26T09:06:08;97446.75;;;4.23;83.93
20710;BME280;10516;51.518;9.864;2024-02-26T09:08:33;97471.75;;;4.37;82.85
20710;BME280;10516;51.518;9.864;2024-02-26T09:11:01;97476.63;;;4.45;82.54
20710;BME280;10516;51.518;9.864;2024-02-26T09:13:26;97447.16;;;4.37;83.07
20710;BME280;10516;51.518;9.864;2024-02-26T09:15:52;97475.72;;;4.56;81.90
20710;BME280;10516;51.518;9.864;2024-02-26T09:18:17;97476.78;;;4.77;82.44
20710;BME280;10516;51.518;9.864;2024-02-26T09:20:42;97466.47;;;4.76;82.28
20710;BME280;10516;51.518;9.864;2024-02-26T09:23:08;97485.09;;;4.86;80.84
20710;BME280;10516;51.518;9.864;2024-02-26T09:25:34;97404.38;;;4.35;82.48
20710;BME280;10516;51.518;9.864;2024-02-26T09:28:00;97469.94;;;4.98;82.65
20710;BME280;10516;51.518;9.864;2024-02-26T09:30:26;97491.91;;;5.25;82.58
20710;BME280;10516;51.518;9.864;2024-02-26T09:32:51;97471.94;;;5.12;81.87
20710;BME280;10516;51.518;9.864;2024-02-26T09:35:17;97498.63;;;5.32;81.67
20710;BME280;10516;51.518;9.864;2024-02-26T09:37:42;97425.94;;;4.92;81.72
20710;BME280;10516;51.518;9.864;2024-02-26T09:40:10;97465.78;;;5.28;80.91
20710;BME280;10516;51.518;9.864;2024-02-26T09:42:44;97453.47;;;5.39;81.73
20710;BME280;10516;51.518;9.864;2024-02-26T09:45:21;97467.84;;;5.48;80.65
20710;BME280;10516;51.518;9.864;2024-02-26T09:47:48;97492.44;;;5.75;80.74
20710;BME280;10516;51.518;9.864;2024-02-26T09:50:19;97500.13;;;5.77;80.24
20710;BME280;10516;51.518;9.864;2024-02-26T09:52:48;97490.28;;;5.72;81.68
20710;BME280;10516;51.518;9.864;2024-02-26T09:55:14;97505.03;;;5.90;80.77
20710;BME280;10516;51.518;9.864;2024-02-26T09:57:44;97492.94;;;5.72;80.44
20710;BME280;10516;51.518;9.864;2024-02-26T10:00:14;97503.59;;;5.77;80.07
20710;BME280;10516;51.518;9.864;2024-02-26T10:02:41;97502.66;;;5.88;79.93
20710;BME280;10516;51.518;9.864;2024-02-26T10:05:10;97479.75;;;5.77;79.73
20710;BME280;10516;51.518;9.864;2024-02-26T10:07:37;97495.84;;;5.97;80.81
20710;BME280;10516;51.518;9.864;2024-02-26T10:10:03;97477.06;;;5.99;80.15
20710;BME280;10516;51.518;9.864;2024-02-26T10:12:29;97470.59;;;5.85;80.47
20710;BME280;10516;51.518;9.864;2024-02-26T10:14:56;97506.50;;;6.02;80.04
20710;BME280;10516;51.518;9.864;2024-02-26T10:17:22;97502.28;;;6.07;80.83
20710;BME280;10516;51.518;9.864;2024-02-26T10:19:47;97464.41;;;6.06;80.98
20710;BME280;10516;51.518;9.864;2024-02-26T10:22:13;97482.16;;;6.05;80.32
20710;BME280;10516;51.518;9.864;2024-02-26T10:24:38;97472.06;;;6.02;80.20
20710;BME280;10516;51.518;9.864;2024-02-26T10:27:04;97497.63;;;6.19;80.57
20710;BME280;10516;51.518;9.864;2024-02-26T10:29:31;97463.81;;;5.94;80.04
20710;BME280;10516;51.518;9.864;2024-02-26T10:31:56;97498.34;;;6.09;80.10
20710;BME280;10516;51.518;9.864;2024-02-26T10:34:21;97522.09;;;6.31;80.38
20710;BME280;10516;51.518;9.864;2024-02-26T10:36:47;97519.56;;;6.46;79.47
20710;BME280;10516;51.518;9.864;2024-02-26T10:39:13;97525.56;;;6.36;80.21
20710;BME280;10516;51.518;9.864;2024-02-26T10:41:43;97497.63;;;6.19;80.02
20710;BME280;10516;51.518;9.864;2024-02-26T10:44:12;97496.31;;;6.21;80.33
20710;BME280;10516;51.518;9.864;2024-02-26T10:46:41;97526.81;;;6.24;79.31
20710;BME280;10516;51.518;9.864;2024-02-26T10:49:13;97514.53;;;6.13;78.73
20710;BME280;10516;51.518;9.864;2024-02-26T10:51:43;97532.69;;;6.31;78.71
20710;BME280;10516;51.518;9.864;2024-02-26T10:54:12;97523.56;;;6.17;78.91
20710;BME280;10516;51.518;9.864;2024-02-26T10:56:41;97521.44;;;6.19;78.88
20710;BME280;10516;51.518;9.864;2024-02-26T10:59:09;97537.66;;;6.22;77.69
20710;BME280;10516;51.518;9.864;2024-02-26T11:01:35;97535.50;;;6.19;78.44
20710;BME280;10516;51.518;9.864;2024-02-26T11:04:04;97517.09;;;6.02;77.71
20710;BME280;10516;51.518;9.864;2024-02-26T11:06:30;97499.59;;;6.01;77.78
20710;BME280;10516;51.518;9.864;2024-02-26T11:08:56;97535.91;;;6.38;78.62
20710;BME280;10516;51.518;9.864;2024-02-26T11:11:23;97536.22;;;6.41;77.43
20710;BME280;10516;51.518;9.864;2024-02-26T11:13:51;97482.88;;;5.96;77.02
20710;BME280;10516;51.518;9.864;2024-02-26T11:16:18;97518.06;;;6.23;77.48
20710;BME280;10516;51.518;9.864;2024-02-26T11:18:48;97544.38;;;6.35;77.85
20710;BME280;10516;51.518;9.864;2024-02-26T11:21:17;97538.72;;;6.58;78.43
20710;BME280;10516;51.518;9.864;2024-02-26T11:23:53;97470.38;;;6.23;77.73
20710;BME280;10516;51.518;9.864;2024-02-26T11:26:20;97543.06;;;6.74;76.50
20710;BME280;10516;51.518;9.864;2024-02-26T11:28:51;97523.66;;;6.68;76.32
20710;BME280;10516;51.518;9.864;2024-02-26T11:31:17;97535.78;;;6.96;76.88
20710;BME280;10516;51.518;9.864;2024-02-26T11:33:50;97520.94;;;7.00;75.21
20710;BME280;10516;51.518;9.864;2024-02-26T11:36:17;97538.22;;;7.03;75.74
20710;BME280;10516;51.518;9.864;2024-02-26T11:38:43;97501.47;;;6.79;75.68
20710;BME280;10516;51.518;9.864;2024-02-26T11:41:09;97540.09;;;7.12;75.21
20710;BME280;10516;51.518;9.864;2024-02-26T11:48:51;97525.81;;;7.18;74.62
20710;BME280;10516;51.518;9.864;2024-02-26T11:51:25;97486.75;;;7.09;75.10
20710;BME280;10516;51.518;9.864;2024-02-26T11:53:50;97527.94;;;7.21;74.57
20710;BME280;10516;51.518;9.864;2024-02-26T11:56:20;97536.16;;;7.20;74.61
20710;BME280;10516;51.518;9.864;2024-02-26T11:58:47;97502.66;;;7.04;75.78
20710;BME280;10516;51.518;9.864;2024-02-26T12:01:43;97527.97;;;7.26;73.89
20710;BME280;10516;51.518;9.864;2024-02-26T12:04:13;97534.53;;;7.09;73.81
20710;BME280;10516;51.518;9.864;2024-02-26T12:07:00;97517.69;;;6.83;74.56
20710;BME280;10516;51.518;9.864;2024-02-26T12:09:36;97528.06;;;6.95;75.24
20710;BME280;10516;51.518;9.864;2024-02-26T12:12:03;97536.59;;;7.02;75.59
20710;BME280;10516;51.518;9.864;2024-02-26T12:14:29;97513.50;;;6.92;75.74
20710;BME280;10516;51.518;9.864;2024-02-26T12:16:58;97523.63;;;7.10;75.75
20710;BME280;10516;51.518;9.864;2024-02-26T12:19:24;97530.81;;;7.10;74.03
20710;BME280;10516;51.518;9.864;2024-02-26T12:21:53;97534.53;;;7.09;74.45
20710;BME280;10516;51.518;9.864;2024-02-26T12:24:21;97524.41;;;7.06;75.34
20710;BME280;10516;51.518;9.864;2024-02-26T12:26:46;97516.22;;;7.07;75.14
20710;BME280;10516;51.518;9.864;2024-02-26T12:29:12;97543.09;;;7.26;74.88
20710;BME280;10516;51.518;9.864;2024-02-26T12:31:40;97508.75;;;7.04;75.05
20710;BME280;10516;51.518;9.864;2024-02-26T12:34:06;97549.47;;;7.30;74.83
20710;BME280;10516;51.518;9.864;2024-02-26T12:36:33;97570.41;;;7.21;74.58
20710;BME280;10516;51.518;9.864;2024-02-26T12:39:00;97546.41;;;7.01;74.67
20710;BME280;10516;51.518;9.864;2024-02-26T12:41:26;97572.81;;;7.28;75.72
20710;BME280;10516;51.518;9.864;2024-02-26T12:43:53;97573.13;;;7.31;76.13
20710;BME280;10516;51.518;9.864;2024-02-26T12:46:18;97576.44;;;7.64;76.36
20710;BME280;10516;51.518;9.864;2024-02-26T12:48:44;97570.63;;;7.77;76.16
20710;BME280;10516;51.518;9.864;2024-02-26T12:51:12;97559.13;;;7.51;73.86
20710;BME280;10516;51.518;9.864;2024-02-26T12:53:38;97556.22;;;7.52;73.92
20710;BME280;10516;51.518;9.864;2024-02-26T12:56:04;97568.16;;;7.60;73.26
20710;BME280;10516;51.518;9.864;2024-02-26T12:58:31;97583.63;;;7.73;73.33
20710;BME280;10516;51.518;9.864;2024-02-26T13:00:57;97563.66;;;7.61;73.59
20710;BME280;10516;51.518;9.864;2024-02-26T13:03:23;97580.63;;;7.54;73.41
20710;BME280;10516;51.518;9.864;2024-02-26T13:05:49;97582.25;;;7.55;72.56
20710;BME280;10516;51.518;9.864;2024-02-26T13:08:19;97588.03;;;7.42;72.68
20710;BME280;10516;51.518;9.864;2024-02-26T13:10:46;97587.59;;;7.66;75.12